createdAt,value
2019-05-22T00:00:41.896Z,38.37
2019-05-22T00:03:20.223Z,38.20
2019-05-22T00:05:51.445Z,38.43
2019-05-22T00:08:22.189Z,38.63
2019-05-22T00:10:55.308Z,38.13
2019-05-22T00:13:34.764Z,39.17
2019-05-22T00:16:04.719Z,39.13
2019-05-22T00:18:35.761Z,38.87
2019-05-22T00:21:08.211Z,38.40
2019-05-22T00:23:40.829Z,38.50
2019-05-22T00:26:12.483Z,39.07
2019-05-22T00:28:43.605Z,39.33
2019-05-22T00:31:14.944Z,38.73
2019-05-22T00:33:44.986Z,38.53
2019-05-22T00:36:17.499Z,38.33
2019-05-22T00:38:48.559Z,38.00
2019-05-22T00:41:20.897Z,38.50
2019-05-22T00:43:51.649Z,38.67
2019-05-22T00:46:25.001Z,38.20
2019-05-22T00:48:54.857Z,38.53
2019-05-22T00:51:36.347Z,39.43
2019-05-22T00:54:16.519Z,41.03
2019-05-22T00:56:52.457Z,40.40
2019-05-22T00:59:27.344Z,40.27
2019-05-22T01:02:08.219Z,39.90
2019-05-22T01:04:42.309Z,39.07
2019-05-22T01:07:18.287Z,39.70
2019-05-22T01:10:01.477Z,39.73
2019-05-22T01:12:32.815Z,39.37
2019-05-22T01:15:07.422Z,38.57
2019-05-22T01:17:38.360Z,39.07
2019-05-22T01:20:11.874Z,38.70
2019-05-22T01:22:42.597Z,39.20
2019-05-22T01:25:16.417Z,39.30
2019-05-22T01:27:47.691Z,39.03
2019-05-22T01:30:22.389Z,39.23
2019-05-22T01:32:55.682Z,39.03
2019-05-22T01:35:31.119Z,39.67
2019-05-22T01:38:03.149Z,38.40
2019-05-22T01:41:05.980Z,38.30
2019-05-22T01:43:39.863Z,38.83
2019-05-22T01:46:12.285Z,38.00
2019-05-22T01:48:45.555Z,38.00
2019-05-22T01:51:20.139Z,37.67
2019-05-22T01:53:54.024Z,38.20
2019-05-22T01:56:27.249Z,37.47
2019-05-22T01:58:58.492Z,37.67
2019-05-22T02:01:30.478Z,38.47
2019-05-22T02:04:02.052Z,37.80
2019-05-22T02:06:35.142Z,38.47
2019-05-22T02:09:21.259Z,37.87
2019-05-22T02:11:56.794Z,37.63
2019-05-22T02:14:30.527Z,38.23
2019-05-22T02:17:03.067Z,38.77
2019-05-22T02:19:34.002Z,38.20
2019-05-22T02:22:07.137Z,37.83
2019-05-22T02:24:37.499Z,37.27
2019-05-22T02:27:08.296Z,38.47
2019-05-22T02:29:40.804Z,38.10
2019-05-22T02:32:12.910Z,37.30
2019-05-22T02:34:44.264Z,37.23
2019-05-22T02:37:16.043Z,37.50
2019-05-22T02:39:47.996Z,37.97
2019-05-22T02:42:26.276Z,37.87
2019-05-22T02:44:57.774Z,37.87
2019-05-22T02:47:29.664Z,38.23
2019-05-22T02:50:00.603Z,37.60
2019-05-22T02:52:30.817Z,38.30
2019-05-22T02:55:00.676Z,38.03
2019-05-22T02:57:32.128Z,37.63
2019-05-22T03:00:06.101Z,37.87
2019-05-22T03:02:53.709Z,37.80
2019-05-22T03:05:25.252Z,37.77
2019-05-22T03:07:55.154Z,37.47
2019-05-22T03:10:25.720Z,37.63
2019-05-22T03:12:58.379Z,38.23
2019-05-22T03:15:28.464Z,38.63
2019-05-22T03:18:02.892Z,38.60
2019-05-22T03:20:34.041Z,38.27
2019-05-22T03:23:39.845Z,37.83
2019-05-22T03:26:10.945Z,37.80
2019-05-22T03:28:42.325Z,38.27
2019-05-22T03:31:13.116Z,38.20
2019-05-22T03:33:43.484Z,38.20
2019-05-22T03:36:18.668Z,38.90
2019-05-22T03:38:50.713Z,38.03
2019-05-22T03:41:20.969Z,38.13
2019-05-22T03:43:53.345Z,38.37
2019-05-22T03:46:37.335Z,38.50
2019-05-22T03:49:28.217Z,38.57
2019-05-22T03:51:49.452Z,38.77
2019-05-22T03:54:20.650Z,39.30
2019-05-22T03:56:52.106Z,39.37
2019-05-22T03:59:22.556Z,39.97
2019-05-22T04:01:54.600Z,38.27
2019-05-22T04:04:37.429Z,38.90
2019-05-22T04:07:08.989Z,38.60
2019-05-22T04:09:43.154Z,39.10
2019-05-22T04:12:13.380Z,38.43
2019-05-22T04:14:44.175Z,38.50
2019-05-22T04:17:16.229Z,38.33
2019-05-22T04:19:51.077Z,38.43
2019-05-22T04:22:20.126Z,38.80
2019-05-22T04:24:51.598Z,38.47
2019-05-22T04:27:21.563Z,39.00
2019-05-22T04:29:54.053Z,38.87
2019-05-22T04:32:28.800Z,40.40
2019-05-22T04:34:58.956Z,39.00
2019-05-22T04:37:31.033Z,38.10
2019-05-22T04:40:24.760Z,38.57
2019-05-22T04:42:57.180Z,38.67
2019-05-22T04:45:29.246Z,38.73
2019-05-22T04:48:05.374Z,40.13
2019-05-22T04:50:35.327Z,39.20
2019-05-22T04:53:05.182Z,39.20
2019-05-22T04:55:35.452Z,39.80
2019-05-22T04:58:11.428Z,39.33
2019-05-22T05:00:41.519Z,39.47
2019-05-22T05:03:13.068Z,39.40
2019-05-22T05:05:51.084Z,39.43
2019-05-22T05:08:21.590Z,39.63
2019-05-22T05:10:53.199Z,39.67
2019-05-22T05:13:23.217Z,39.47
2019-05-22T05:15:52.872Z,39.03
2019-05-22T05:18:23.463Z,39.60
2019-05-22T05:20:53.270Z,40.33
2019-05-22T05:23:24.121Z,40.10
2019-05-22T05:25:53.862Z,39.60
2019-05-22T05:28:23.663Z,39.17
2019-05-22T05:30:54.403Z,39.60
2019-05-22T05:33:25.329Z,39.40
2019-05-22T05:35:56.003Z,39.97
2019-05-22T05:38:39.097Z,40.77
2019-05-22T05:41:09.677Z,40.07
2019-05-22T05:43:39.953Z,40.33
2019-05-22T05:46:09.636Z,39.97
2019-05-22T05:48:40.197Z,39.97
2019-05-22T05:51:16.773Z,39.53
2019-05-22T05:54:03.164Z,39.97
2019-05-22T05:56:35.709Z,40.17
2019-05-22T05:59:10.882Z,39.73
2019-05-22T06:01:42.573Z,41.30
2019-05-22T06:04:13.571Z,40.23
2019-05-22T06:06:56.296Z,40.40
2019-05-22T06:09:30.152Z,40.70
2019-05-22T06:12:05.462Z,39.90
2019-05-22T06:14:36.799Z,39.27
2019-05-22T06:17:47.298Z,39.77
2019-05-22T06:20:19.572Z,39.90
2019-05-22T06:23:23.340Z,39.93
2019-05-22T06:25:55.379Z,40.07
2019-05-22T06:28:28.711Z,40.13
2019-05-22T06:31:02.540Z,40.53
2019-05-22T06:33:35.013Z,40.23
2019-05-22T06:36:12.849Z,39.40
2019-05-22T06:39:00.137Z,40.17
2019-05-22T06:41:36.004Z,39.83
2019-05-22T06:44:42.922Z,40.00
2019-05-22T06:47:16.122Z,39.80
2019-05-22T06:49:49.269Z,39.83
2019-05-22T06:52:19.483Z,39.67
2019-05-22T06:54:49.964Z,39.70
2019-05-22T06:57:21.629Z,40.33
2019-05-22T07:00:11.256Z,40.20
2019-05-22T07:02:26.299Z,39.77
2019-05-22T07:04:56.797Z,40.20
2019-05-22T07:07:27.692Z,40.30
2019-05-22T07:09:58.599Z,39.77
2019-05-22T07:12:29.361Z,40.10
2019-05-22T07:15:11.319Z,40.13
2019-05-22T07:17:42.028Z,39.60
2019-05-22T07:20:13.806Z,40.50
2019-05-22T07:22:44.614Z,40.07
2019-05-22T07:25:14.965Z,39.80
2019-05-22T07:27:46.409Z,40.33
2019-05-22T07:30:17.060Z,39.47
2019-05-22T07:32:47.058Z,40.70
2019-05-22T07:35:18.570Z,40.70
2019-05-22T07:37:49.431Z,40.60
2019-05-22T07:40:21.334Z,40.03
2019-05-22T07:42:53.080Z,40.17
2019-05-22T07:45:27.207Z,40.00
2019-05-22T07:47:58.232Z,39.77
2019-05-22T07:50:31.448Z,40.63
2019-05-22T07:53:02.419Z,39.13
2019-05-22T07:55:36.060Z,39.87
2019-05-22T07:58:10.317Z,39.80
2019-05-22T08:00:45.062Z,39.57
2019-05-22T08:03:15.317Z,40.73
2019-05-22T08:05:55.086Z,40.63
2019-05-22T08:08:26.631Z,40.23
2019-05-22T08:10:58.651Z,40.47
2019-05-22T08:13:30.468Z,41.03
2019-05-22T08:16:00.649Z,40.77
2019-05-22T08:18:32.966Z,40.60
2019-05-22T08:21:03.174Z,40.13
2019-05-22T08:23:33.683Z,40.90
2019-05-22T08:26:04.939Z,40.80
2019-05-22T08:28:37.099Z,41.17
2019-05-22T08:31:10.400Z,40.73
2019-05-22T08:33:40.787Z,40.80
2019-05-22T08:36:12.066Z,42.70
2019-05-22T08:38:46.680Z,41.03
2019-05-22T08:41:20.910Z,40.43
2019-05-22T08:44:14.625Z,41.20
2019-05-22T08:46:27.929Z,40.40
2019-05-22T08:48:59.055Z,40.67
2019-05-22T08:51:29.481Z,41.33
2019-05-22T08:54:05.368Z,40.90
2019-05-22T08:56:39.206Z,40.87
2019-05-22T08:59:19.533Z,40.63
2019-05-22T09:01:42.739Z,41.43
2019-05-22T09:04:12.675Z,41.10
2019-05-22T09:06:42.849Z,41.30
2019-05-22T09:09:13.221Z,41.27
2019-05-22T09:11:43.186Z,41.03
2019-05-22T09:14:12.891Z,40.80
2019-05-22T09:16:44.019Z,41.07
2019-05-22T09:19:14.241Z,42.00
2019-05-22T09:21:44.778Z,40.90
2019-05-22T09:24:17.506Z,40.60
2019-05-22T09:26:50.803Z,40.10
2019-05-22T09:29:21.832Z,41.07
2019-05-22T09:31:51.792Z,41.03
2019-05-22T09:34:21.747Z,40.27
2019-05-22T09:36:51.513Z,40.33
2019-05-22T09:39:22.558Z,40.43
2019-05-22T09:41:52.267Z,41.03
2019-05-22T09:44:22.110Z,41.00
2019-05-22T09:46:52.065Z,41.50
2019-05-22T09:49:24.177Z,44.60
2019-05-22T09:51:55.090Z,43.63
2019-05-22T09:54:25.445Z,40.97
2019-05-22T09:56:55.813Z,41.17
2019-05-22T09:59:25.478Z,41.43
2019-05-22T10:01:55.630Z,41.43
2019-05-22T10:04:25.472Z,41.43
2019-05-22T10:06:55.341Z,41.60
2019-05-22T10:09:26.209Z,41.37
2019-05-22T10:11:56.289Z,42.17
2019-05-22T10:14:26.226Z,42.07
2019-05-22T10:16:56.471Z,41.77
2019-05-22T10:19:26.325Z,41.43
2019-05-22T10:21:56.881Z,41.37
2019-05-22T10:24:27.419Z,41.63
2019-05-22T10:26:59.085Z,41.97
2019-05-22T10:29:32.182Z,41.67
2019-05-22T10:32:00.231Z,41.23
2019-05-22T10:34:30.402Z,42.10
2019-05-22T10:37:00.450Z,41.80
2019-05-22T10:39:31.763Z,41.77
2019-05-22T10:42:01.459Z,41.63
2019-05-22T10:44:31.408Z,41.37
2019-05-22T10:47:01.272Z,41.73
2019-05-22T10:49:32.304Z,41.63
2019-05-22T10:52:02.078Z,41.63
2019-05-22T10:54:31.817Z,42.07
2019-05-22T10:57:01.926Z,42.17
2019-05-22T10:59:32.692Z,41.00
2019-05-22T11:02:02.584Z,41.00
2019-05-22T11:04:32.706Z,40.73
2019-05-22T11:07:03.572Z,41.30
2019-05-22T11:09:34.131Z,42.00
2019-05-22T11:12:06.835Z,41.73
2019-05-22T11:14:36.509Z,41.13
2019-05-22T11:17:07.155Z,41.23
2019-05-22T11:19:37.306Z,41.90
2019-05-22T11:22:08.949Z,42.40
2019-05-22T11:24:39.121Z,41.97
2019-05-22T11:27:09.395Z,41.53
2019-05-22T11:29:40.323Z,41.40
2019-05-22T11:32:11.513Z,41.27
2019-05-22T11:34:41.291Z,41.17
2019-05-22T11:37:11.218Z,42.37
2019-05-22T11:39:44.808Z,41.43
2019-05-22T11:42:17.929Z,43.73
2019-05-22T11:44:47.709Z,43.20
2019-05-22T11:47:18.548Z,43.90
2019-05-22T11:49:48.546Z,42.47
2019-05-22T11:52:18.991Z,40.97
2019-05-22T11:54:48.790Z,41.30
2019-05-22T11:57:20.134Z,41.43
2019-05-22T11:59:49.889Z,41.37
2019-05-22T12:02:22.232Z,42.00
2019-05-22T12:04:53.984Z,41.67
2019-05-22T12:07:24.629Z,41.40
2019-05-22T12:09:55.178Z,41.03
2019-05-22T12:12:26.644Z,41.60
2019-05-22T12:14:56.705Z,41.93
2019-05-22T12:17:37.505Z,41.97
2019-05-22T12:19:58.676Z,41.90
2019-05-22T12:22:30.363Z,44.60
2019-05-22T12:25:01.964Z,42.13
2019-05-22T12:27:32.061Z,41.73
2019-05-22T12:30:03.162Z,42.43
2019-05-22T12:32:34.303Z,41.60
2019-05-22T12:35:05.205Z,41.67
2019-05-22T12:37:35.862Z,41.70
2019-05-22T12:40:08.558Z,41.77
2019-05-22T12:42:39.490Z,42.97
2019-05-22T12:45:11.282Z,41.70
2019-05-22T12:47:43.246Z,42.00
2019-05-22T12:50:17.083Z,41.37
2019-05-22T12:52:51.244Z,41.80
2019-05-22T12:55:21.590Z,41.90
2019-05-22T12:57:54.308Z,41.87
2019-05-22T13:00:27.359Z,41.63
2019-05-22T13:03:00.835Z,42.03
2019-05-22T13:05:31.970Z,42.30
2019-05-22T13:08:03.000Z,42.50
2019-05-22T13:10:34.154Z,41.33
2019-05-22T13:13:04.538Z,41.83
2019-05-22T13:15:39.113Z,42.20
2019-05-22T13:18:13.032Z,42.27
2019-05-22T13:20:50.252Z,42.23
2019-05-22T13:23:24.997Z,42.20
2019-05-22T13:25:55.558Z,42.30
2019-05-22T13:28:28.634Z,41.77
2019-05-22T13:31:00.089Z,43.13
2019-05-22T13:33:31.599Z,42.20
2019-05-22T13:36:03.025Z,41.80
2019-05-22T13:38:33.468Z,41.77
2019-05-22T13:41:04.609Z,42.23
2019-05-22T13:43:38.182Z,42.27
2019-05-22T13:46:08.479Z,42.67
2019-05-22T13:48:38.653Z,42.40
2019-05-22T13:51:11.007Z,42.23
2019-05-22T13:53:45.505Z,42.47
2019-05-22T13:56:17.887Z,43.00
2019-05-22T13:58:49.895Z,42.67
2019-05-22T14:01:21.815Z,42.97
2019-05-22T14:03:53.159Z,43.10
2019-05-22T14:06:24.161Z,43.50
2019-05-22T14:08:54.440Z,43.33
2019-05-22T14:11:26.077Z,43.20
2019-05-22T14:13:55.738Z,43.40
2019-05-22T14:16:27.054Z,42.77
2019-05-22T14:18:56.735Z,42.70
2019-05-22T14:21:26.579Z,42.60
2019-05-22T14:23:56.485Z,43.60
2019-05-22T14:26:30.120Z,43.13
2019-05-22T14:29:00.272Z,43.47
2019-05-22T14:31:30.277Z,43.33
2019-05-22T14:34:00.469Z,43.40
2019-05-22T14:36:30.631Z,44.03
2019-05-22T14:39:00.531Z,44.63
2019-05-22T14:41:30.298Z,44.90
2019-05-22T14:44:00.449Z,44.10
2019-05-22T14:46:30.341Z,44.43
2019-05-22T14:49:00.144Z,44.37
2019-05-22T14:51:30.210Z,45.07
2019-05-22T14:54:00.514Z,44.40
2019-05-22T14:56:30.544Z,44.00
2019-05-22T14:59:01.195Z,44.37
2019-05-22T15:01:31.171Z,44.97
2019-05-22T15:04:02.333Z,45.03
2019-05-22T15:06:32.381Z,44.93
2019-05-22T15:09:02.088Z,43.97
2019-05-22T15:11:32.198Z,44.00
2019-05-22T15:14:02.045Z,44.23
2019-05-22T15:16:32.038Z,44.97
2019-05-22T15:19:01.705Z,45.20
2019-05-22T15:21:31.457Z,44.93
2019-05-22T15:24:02.033Z,44.43
2019-05-22T15:26:32.392Z,45.37
2019-05-22T15:29:02.138Z,44.77
2019-05-22T15:31:32.820Z,45.13
2019-05-22T15:34:05.554Z,47.60
2019-05-22T15:36:37.655Z,44.90
2019-05-22T15:39:11.171Z,43.97
2019-05-22T15:41:42.070Z,44.57
2019-05-22T15:44:12.533Z,45.37
2019-05-22T15:46:44.291Z,44.43
2019-05-22T15:49:16.340Z,45.23
2019-05-22T15:51:47.702Z,45.10
2019-05-22T15:54:19.359Z,44.17
2019-05-22T15:56:49.609Z,44.53
2019-05-22T15:59:21.823Z,45.60
2019-05-22T16:01:52.984Z,45.43
2019-05-22T16:04:23.727Z,44.60
2019-05-22T16:06:55.254Z,46.63
2019-05-22T16:09:27.326Z,44.77
2019-05-22T16:11:57.560Z,44.73
2019-05-22T16:14:31.378Z,45.23
2019-05-22T16:17:03.969Z,45.83
2019-05-22T16:19:34.405Z,45.40
2019-05-22T16:22:09.203Z,45.10
2019-05-22T16:24:41.119Z,46.03
2019-05-22T16:27:14.480Z,45.87
2019-05-22T16:29:46.105Z,45.50
2019-05-22T16:32:19.153Z,45.00
2019-05-22T16:34:49.096Z,45.17
2019-05-22T16:37:20.046Z,45.20
2019-05-22T16:39:51.624Z,46.03
2019-05-22T16:42:22.683Z,45.83
2019-05-22T16:44:52.823Z,45.87
2019-05-22T16:47:24.117Z,44.93
2019-05-22T16:49:54.859Z,45.37
2019-05-22T16:52:28.435Z,45.60
2019-05-22T16:54:58.808Z,44.73
2019-05-22T16:57:31.684Z,44.97
2019-05-22T17:00:02.242Z,44.20
2019-05-22T17:02:34.860Z,44.30
2019-05-22T17:05:07.883Z,45.00
2019-05-22T17:07:39.902Z,44.83
2019-05-22T17:10:12.026Z,44.87
2019-05-22T17:13:03.139Z,47.27
2019-05-22T17:15:35.485Z,47.80
2019-05-22T17:18:05.702Z,44.97
2019-05-22T17:20:36.877Z,44.30
2019-05-22T17:23:07.401Z,45.73
2019-05-22T17:25:38.041Z,46.83
2019-05-22T17:28:09.466Z,47.10
2019-05-22T17:30:40.214Z,45.13
2019-05-22T17:33:11.364Z,44.90
2019-05-22T17:35:42.109Z,45.20
2019-05-22T17:38:17.089Z,49.00
2019-05-22T17:40:48.292Z,49.43
2019-05-22T17:43:19.662Z,47.03
2019-05-22T17:45:51.493Z,46.53
2019-05-22T17:48:22.153Z,45.23
2019-05-22T17:50:53.314Z,44.20
2019-05-22T17:53:23.876Z,46.87
2019-05-22T17:55:54.417Z,47.67
2019-05-22T17:58:29.482Z,50.13
2019-05-22T18:00:57.960Z,46.47
2019-05-22T18:03:28.005Z,43.97
2019-05-22T18:05:58.981Z,47.00
2019-05-22T18:08:30.062Z,45.07
2019-05-22T18:11:03.879Z,44.43
2019-05-22T18:13:38.208Z,48.30
2019-05-22T18:16:10.052Z,47.67
2019-05-22T18:18:40.562Z,44.47
2019-05-22T18:21:11.705Z,44.60
2019-05-22T18:23:42.733Z,46.13
2019-05-22T18:26:13.309Z,47.43
2019-05-22T18:28:44.896Z,48.37
2019-05-22T18:31:16.687Z,46.50
2019-05-22T18:33:47.830Z,47.60
2019-05-22T18:36:18.687Z,45.13
2019-05-22T18:38:49.281Z,48.37
2019-05-22T18:41:21.186Z,47.63
2019-05-22T18:43:52.601Z,46.37
2019-05-22T18:46:22.962Z,45.27
2019-05-22T18:48:53.767Z,44.37
2019-05-22T18:51:25.240Z,43.70
2019-05-22T18:53:58.818Z,45.83
2019-05-22T18:56:30.380Z,44.17
2019-05-22T18:59:01.252Z,43.23
2019-05-22T19:01:33.026Z,42.87
2019-05-22T19:04:03.756Z,45.47
2019-05-22T19:06:34.540Z,45.23
2019-05-22T19:09:06.495Z,43.30
2019-05-22T19:11:37.520Z,45.23
2019-05-22T19:14:08.935Z,48.07
2019-05-22T19:16:40.344Z,44.73
2019-05-22T19:19:11.534Z,47.07
2019-05-22T19:21:42.639Z,47.13
2019-05-22T19:24:13.487Z,47.37
2019-05-22T19:26:43.922Z,47.80
2019-05-22T19:29:14.974Z,46.63
2019-05-22T19:31:45.443Z,45.03
2019-05-22T19:34:15.718Z,45.77
2019-05-22T19:36:47.497Z,45.43
2019-05-22T19:39:17.910Z,44.73
2019-05-22T19:42:01.338Z,43.60
2019-05-22T19:44:19.934Z,44.07
2019-05-22T19:46:52.887Z,42.03
2019-05-22T19:49:25.783Z,42.30
2019-05-22T19:51:58.076Z,41.50
2019-05-22T19:54:29.671Z,42.13
2019-05-22T19:57:04.771Z,42.67
2019-05-22T19:59:35.604Z,43.20
2019-05-22T20:02:07.724Z,41.93
2019-05-22T20:04:39.008Z,42.33
2019-05-22T20:07:10.836Z,41.13
2019-05-22T20:09:40.560Z,41.83
2019-05-22T20:12:12.371Z,41.23
2019-05-22T20:14:42.093Z,41.37
2019-05-22T20:17:13.535Z,42.10
2019-05-22T20:19:43.842Z,41.77
2019-05-22T20:22:15.213Z,41.40
2019-05-22T20:24:45.124Z,41.40
2019-05-22T20:27:15.563Z,41.27
2019-05-22T20:29:46.348Z,42.17
2019-05-22T20:32:16.395Z,42.13
2019-05-22T20:34:47.833Z,41.40
2019-05-22T20:37:18.388Z,41.43
2019-05-22T20:39:48.284Z,41.60
2019-05-22T20:42:18.215Z,42.00
2019-05-22T20:44:48.608Z,41.70
2019-05-22T20:47:22.503Z,41.27
2019-05-22T20:49:52.518Z,41.13
2019-05-22T20:52:22.957Z,40.83
2019-05-22T20:54:54.972Z,40.80
2019-05-22T20:57:26.454Z,42.07
2019-05-22T20:59:58.306Z,42.53
2019-05-22T21:02:30.624Z,43.27
2019-05-22T21:05:01.014Z,41.43
2019-05-22T21:07:36.106Z,41.73
2019-05-22T21:10:09.162Z,41.63
2019-05-22T21:12:39.306Z,42.27
2019-05-22T21:15:10.152Z,41.70
2019-05-22T21:17:42.089Z,41.30
2019-05-22T21:20:14.827Z,41.57
2019-05-22T21:22:45.970Z,41.00
2019-05-22T21:25:16.546Z,42.23
2019-05-22T21:27:46.797Z,41.97
2019-05-22T21:30:17.588Z,41.23
2019-05-22T21:32:47.919Z,41.57
2019-05-22T21:35:21.402Z,42.77
2019-05-22T21:37:52.029Z,41.90
2019-05-22T21:40:25.301Z,41.80
2019-05-22T21:42:56.546Z,41.80
2019-05-22T21:45:26.899Z,41.47
2019-05-22T21:47:57.114Z,42.90
2019-05-22T21:50:27.394Z,42.20
2019-05-22T21:52:58.260Z,41.50
2019-05-22T21:55:30.596Z,41.27
2019-05-22T21:58:01.192Z,41.97
2019-05-22T22:00:40.069Z,41.60
2019-05-22T22:03:19.436Z,40.57
2019-05-22T22:05:49.431Z,40.60
2019-05-22T22:08:19.410Z,40.90
2019-05-22T22:10:49.767Z,39.63
2019-05-22T22:13:21.533Z,41.63
2019-05-22T22:15:51.698Z,40.23
2019-05-22T22:18:24.753Z,40.33
2019-05-22T22:20:57.467Z,40.70
2019-05-22T22:23:29.493Z,40.73
2019-05-22T22:26:00.626Z,41.30
2019-05-22T22:28:31.513Z,40.40
2019-05-22T22:31:08.315Z,40.23
2019-05-22T22:33:40.482Z,41.43
2019-05-22T22:36:11.418Z,40.37
2019-05-22T22:38:43.095Z,39.80
2019-05-22T22:41:14.180Z,41.57
2019-05-22T22:43:49.220Z,41.93
2019-05-22T22:46:36.291Z,41.47
2019-05-22T22:49:09.119Z,41.17
2019-05-22T22:51:39.067Z,41.63
2019-05-22T22:54:10.247Z,41.30
2019-05-22T22:56:41.072Z,41.67
2019-05-22T22:59:15.029Z,41.30
2019-05-22T23:01:50.714Z,41.97
2019-05-22T23:04:24.518Z,41.97
2019-05-22T23:06:58.774Z,41.57
2019-05-22T23:09:31.913Z,41.27
2019-05-22T23:12:04.324Z,40.87
2019-05-22T23:14:36.489Z,42.13
2019-05-22T23:17:07.137Z,41.70
2019-05-22T23:19:36.073Z,43.07
2019-05-22T23:22:05.760Z,42.13
2019-05-22T23:24:39.246Z,42.03
2019-05-22T23:27:10.799Z,41.20
2019-05-22T23:29:42.366Z,41.87
2019-05-22T23:32:14.423Z,41.63
2019-05-22T23:34:45.398Z,41.60
2019-05-22T23:37:18.669Z,42.30
2019-05-22T23:39:53.113Z,41.33
2019-05-22T23:42:28.614Z,41.50
2019-05-22T23:45:01.340Z,41.97
2019-05-22T23:47:35.127Z,41.53
2019-05-22T23:50:07.438Z,41.10
2019-05-22T23:52:38.174Z,41.63
2019-05-22T23:55:10.480Z,42.07
2019-05-22T23:57:42.330Z,42.60
